Time;durP1;ratioP1;P1;durP2;ratioP2;P2;SDS_P1;SDS_P2;PMS_P1;PMS_P2;Temp;Humidity;BMP_temperature;BMP_pressure;BME280_temperature;BME280_humidity;BME280_pressure;Samples;Min_cycle;Max_cycle;Signal;HPM_P1;HPM_P2
2022/08/16 00:00:49;;;;;;;14.50;6.25;;;18.80;99.90;;;;;;4987957;28;20026;-84
2022/08/16 00:03:16;;;;;;;12.73;6.68;;;18.70;99.90;;;;;;4988673;28;20031;-83
2022/08/16 00:05:43;;;;;;;11.60;5.63;;;18.70;99.90;;;;;;4985733;28;20057;-84
2022/08/16 00:08:09;;;;;;;13.85;5.45;;;18.90;99.90;;;;;;4989266;28;20148;-84
2022/08/16 00:10:35;;;;;;;10.25;5.10;;;19.10;99.90;;;;;;4990074;28;20034;-83
2022/08/16 00:13:04;;;;;;;10.35;5.10;;;19.20;99.90;;;;;;4989704;28;20022;-84
2022/08/16 00:15:36;;;;;;;12.57;5.15;;;19.30;99.90;;;;;;4990987;28;20823;-83
2022/08/16 00:18:03;;;;;;;9.95;5.03;;;19.40;99.90;;;;;;4979614;28;20499;-83
2022/08/16 00:20:30;;;;;;;10.45;5.13;;;19.40;99.90;;;;;;4993959;28;20545;-83
2022/08/16 00:22:56;;;;;;;9.65;4.80;;;19.40;99.90;;;;;;4987833;28;20112;-84
2022/08/16 00:25:23;;;;;;;8.77;4.53;;;19.50;99.90;;;;;;4988399;28;20035;-83
2022/08/16 00:27:50;;;;;;;8.43;4.60;;;19.50;99.90;;;;;;4987602;28;20057;-83
2022/08/16 00:30:17;;;;;;;8.68;4.80;;;19.50;99.90;;;;;;4988240;28;20038;-83
2022/08/16 00:32:46;;;;;;;9.93;4.80;;;19.40;99.90;;;;;;4991675;28;20054;-83
2022/08/16 00:35:16;;;;;;;9.88;4.97;;;19.40;99.90;;;;;;4987164;28;20029;-83
2022/08/16 00:37:43;;;;;;;9.35;4.85;;;19.30;99.90;;;;;;4986820;28;20010;-83
2022/08/16 00:40:09;;;;;;;9.90;5.00;;;19.20;99.90;;;;;;4989097;28;20107;-83
2022/08/16 00:42:35;;;;;;;9.65;5.00;;;19.20;99.90;;;;;;4986322;28;20089;-83
2022/08/16 00:45:13;;;;;;;8.30;4.68;;;19.20;99.90;;;;;;4988662;28;20136;-83
2022/08/16 00:47:45;;;;;;;9.13;4.82;;;19.20;99.90;;;;;;4986419;28;20039;-83
2022/08/16 00:50:11;;;;;;;10.00;4.55;;;19.40;99.90;;;;;;4986700;28;20029;-83
2022/08/16 00:52:37;;;;;;;10.90;4.70;;;19.40;99.90;;;;;;4984331;28;20018;-83
2022/08/16 00:55:03;;;;;;;10.55;4.57;;;19.30;99.90;;;;;;4983317;28;20057;-83
2022/08/16 00:57:30;;;;;;;12.30;4.72;;;19.40;99.90;;;;;;4989340;28;20062;-83
2022/08/16 00:59:55;;;;;;;9.70;4.85;;;19.40;99.90;;;;;;4984206;28;20030;-83
2022/08/16 01:02:21;;;;;;;12.10;5.28;;;19.30;99.90;;;;;;4987954;28;20104;-84
2022/08/16 01:04:47;;;;;;;10.55;4.80;;;19.40;99.90;;;;;;4986418;28;20046;-84
2022/08/16 01:07:13;;;;;;;13.32;4.78;;;19.30;99.90;;;;;;5005179;28;20487;-84
2022/08/16 01:09:39;;;;;;;10.45;4.60;;;19.30;99.90;;;;;;4992050;28;20113;-83
2022/08/16 01:12:07;;;;;;;9.98;4.72;;;19.30;99.90;;;;;;4991001;28;20032;-84
2022/08/16 01:14:39;;;;;;;10.02;4.70;;;19.20;99.90;;;;;;4993652;28;20026;-84
2022/08/16 01:17:05;;;;;;;11.13;4.80;;;19.20;99.90;;;;;;4993051;28;20038;-83
2022/08/16 01:19:55;;;;;;;11.98;5.32;;;19.20;99.90;;;;;;4993011;28;20080;-83
2022/08/16 01:22:44;;;;;;;9.93;4.97;;;19.20;99.90;;;;;;4996222;28;20465;-83
2022/08/16 01:25:16;;;;;;;9.27;4.90;;;19.30;99.90;;;;;;4998174;28;20023;-83
2022/08/16 01:27:47;;;;;;;9.27;5.10;;;19.40;99.90;;;;;;5008027;28;20696;-83
2022/08/16 01:30:17;;;;;;;10.43;5.50;;;19.40;99.90;;;;;;4982366;28;20526;-83
2022/08/16 01:32:43;;;;;;;9.80;5.05;;;19.30;99.90;;;;;;4992226;28;20821;-84
2022/08/16 01:35:22;;;;;;;11.18;5.28;;;19.30;99.90;;;;;;4989442;28;20026;-83
2022/08/16 01:37:52;;;;;;;10.32;5.32;;;19.30;99.90;;;;;;4985741;28;20034;-83
2022/08/16 01:40:21;;;;;;;9.32;4.97;;;19.30;99.90;;;;;;4992613;28;20037;-83
2022/08/16 01:42:48;;;;;;;9.63;5.40;;;19.30;99.90;;;;;;4989981;28;20033;-84
2022/08/16 01:45:15;;;;;;;10.45;5.07;;;19.30;99.90;;;;;;4989693;28;20459;-83
2022/08/16 01:47:43;;;;;;;10.82;5.10;;;19.20;99.90;;;;;;4991815;28;20066;-83
2022/08/16 01:50:09;;;;;;;11.65;5.07;;;19.10;99.90;;;;;;4988199;28;20465;-83
2022/08/16 01:52:35;;;;;;;10.45;5.53;;;19.10;99.90;;;;;;4992886;28;20113;-83
2022/08/16 01:55:02;;;;;;;9.48;5.20;;;19.10;99.90;;;;;;4991148;28;20053;-83
2022/08/16 01:57:28;;;;;;;10.73;5.20;;;19.10;99.90;;;;;;4984056;28;20028;-83
2022/08/16 01:59:54;;;;;;;8.70;4.85;;;19.20;99.90;;;;;;4992179;28;20118;-83
2022/08/16 02:02:23;;;;;;;10.98;5.03;;;19.20;99.90;;;;;;4987163;28;20454;-83
2022/08/16 02:04:48;;;;;;;10.05;5.50;;;19.20;99.90;;;;;;4983511;28;20061;-83
2022/08/16 02:07:17;;;;;;;9.55;4.90;;;19.20;99.90;;;;;;4986382;28;20026;-83
2022/08/16 02:09:43;;;;;;;10.23;5.10;;;19.30;99.90;;;;;;4992198;28;20453;-83
2022/08/16 02:12:09;;;;;;;11.77;4.95;;;19.30;99.90;;;;;;4984361;28;20030;-83
2022/08/16 02:14:35;;;;;;;9.48;4.68;;;19.40;99.90;;;;;;4992349;28;20101;-83
2022/08/16 02:17:04;;;;;;;9.68;4.60;;;19.40;99.90;;;;;;4982838;28;20037;-83
2022/08/16 02:19:34;;;;;;;9.05;4.32;;;19.40;99.90;;;;;;4992164;28;20486;-83
2022/08/16 02:22:01;;;;;;;10.45;4.93;;;19.40;99.90;;;;;;4985626;28;20121;-83
2022/08/16 02:24:27;;;;;;;9.60;5.25;;;19.40;99.90;;;;;;4996941;28;20081;-83
2022/08/16 02:26:55;;;;;;;11.45;5.10;;;19.40;99.90;;;;;;4989222;28;20034;-83
2022/08/16 02:29:20;;;;;;;10.13;4.90;;;19.40;99.90;;;;;;4987812;28;20046;-83
2022/08/16 02:31:49;;;;;;;11.70;5.07;;;19.40;99.90;;;;;;4990350;28;20470;-83
2022/08/16 02:34:16;;;;;;;11.68;5.35;;;19.40;99.90;;;;;;4998154;28;20482;-83
2022/08/16 02:36:43;;;;;;;9.13;4.85;;;19.50;99.90;;;;;;4994172;28;20030;-83
2022/08/16 02:39:11;;;;;;;13.32;5.10;;;19.60;99.90;;;;;;4996484;28;20026;-83
2022/08/16 02:41:40;;;;;;;9.00;4.97;;;19.50;99.90;;;;;;4989162;28;20057;-83
2022/08/16 02:44:09;;;;;;;11.35;4.72;;;19.60;99.90;;;;;;4992643;28;20073;-83
2022/08/16 02:46:36;;;;;;;9.32;4.90;;;19.50;99.90;;;;;;5007585;28;20045;-83
2022/08/16 02:49:04;;;;;;;11.73;5.55;;;19.50;99.90;;;;;;4990650;28;20502;-83
2022/08/16 02:51:30;;;;;;;10.35;5.47;;;19.50;99.90;;;;;;4989382;28;20399;-83
2022/08/16 02:53:55;;;;;;;13.13;6.10;;;19.40;99.90;;;;;;4992965;28;20033;-83
2022/08/16 02:56:21;;;;;;;12.13;5.95;;;19.40;99.90;;;;;;4990143;28;20023;-83
2022/08/16 02:58:49;;;;;;;12.65;6.07;;;19.30;99.90;;;;;;4984357;28;20456;-83
2022/08/16 03:01:20;;;;;;;11.85;6.18;;;19.20;99.90;;;;;;4991461;28;20029;-83
2022/08/16 03:03:46;;;;;;;11.38;5.90;;;19.20;99.90;;;;;;4991169;28;20038;-83
2022/08/16 03:06:12;;;;;;;13.15;6.20;;;19.20;99.90;;;;;;4991430;28;20073;-83
2022/08/16 03:08:38;;;;;;;11.93;5.72;;;19.10;99.90;;;;;;4994150;28;20038;-83
2022/08/16 03:11:03;;;;;;;10.10;5.78;;;19.10;99.90;;;;;;4990757;28;20038;-83
2022/08/16 03:13:29;;;;;;;13.38;6.03;;;19.00;99.90;;;;;;4981925;28;20230;-84
2022/08/16 03:15:55;;;;;;;10.02;5.65;;;18.90;99.90;;;;;;4990866;28;20773;-83
2022/08/16 03:18:21;;;;;;;11.20;5.57;;;18.90;99.90;;;;;;4991404;28;20110;-83
2022/08/16 03:20:46;;;;;;;10.80;5.70;;;18.90;99.90;;;;;;4990611;28;20054;-83
2022/08/16 03:23:13;;;;;;;10.93;5.60;;;18.90;99.90;;;;;;4994322;28;20048;-83
2022/08/16 03:25:38;;;;;;;9.85;5.63;;;18.90;99.90;;;;;;4988872;28;20081;-84
2022/08/16 03:28:08;;;;;;;9.80;5.35;;;18.70;99.90;;;;;;4990342;28;20022;-83
2022/08/16 03:30:35;;;;;;;10.10;5.40;;;18.70;99.90;;;;;;4991667;28;20030;-83
2022/08/16 03:33:01;;;;;;;9.95;5.65;;;18.70;99.90;;;;;;4989922;28;20053;-83
2022/08/16 03:35:30;;;;;;;10.95;5.97;;;18.80;99.90;;;;;;4992021;28;20045;-83
2022/08/16 03:37:59;;;;;;;12.38;5.57;;;18.70;99.90;;;;;;4990213;28;20093;-83
2022/08/16 03:40:26;;;;;;;12.00;5.82;;;18.60;99.90;;;;;;4990417;28;20033;-83
2022/08/16 03:42:52;;;;;;;11.82;5.82;;;18.60;99.90;;;;;;4991969;28;20027;-83
2022/08/16 03:45:18;;;;;;;10.57;5.28;;;18.60;99.90;;;;;;4995844;28;20068;-83
2022/08/16 03:47:47;;;;;;;11.27;5.15;;;18.50;99.90;;;;;;4986172;28;20475;-83
2022/08/16 03:50:14;;;;;;;11.50;5.95;;;18.50;99.90;;;;;;5000324;28;20026;-83
2022/08/16 03:52:41;;;;;;;9.85;5.35;;;18.50;99.90;;;;;;4990026;28;20041;-83
2022/08/16 03:55:08;;;;;;;9.40;5.25;;;18.50;99.90;;;;;;4992370;28;20113;-83
2022/08/16 03:57:35;;;;;;;12.70;6.20;;;18.50;99.90;;;;;;4984627;28;20085;-83
2022/08/16 04:00:11;;;;;;;11.02;6.18;;;18.60;99.90;;;;;;4985221;28;20085;-83
2022/08/16 04:02:37;;;;;;;11.18;6.07;;;18.60;99.90;;;;;;4987473;28;20034;-84
2022/08/16 04:05:03;;;;;;;10.77;6.28;;;18.50;99.90;;;;;;4987811;28;20185;-83
2022/08/16 04:07:29;;;;;;;11.90;6.60;;;18.50;99.90;;;;;;4988888;28;20027;-84
2022/08/16 04:09:54;;;;;;;10.93;5.95;;;18.50;99.90;;;;;;4993386;28;20046;-83
2022/08/16 04:12:20;;;;;;;12.10;6.28;;;18.50;99.90;;;;;;4991981;28;20076;-83
2022/08/16 04:14:46;;;;;;;12.90;6.57;;;18.50;99.90;;;;;;4989353;28;20031;-83
2022/08/16 04:17:14;;;;;;;12.15;6.15;;;18.40;99.90;;;;;;4986688;28;20566;-83
2022/08/16 04:19:40;;;;;;;11.18;5.38;;;18.30;99.90;;;;;;4988569;28;20489;-83
2022/08/16 04:22:06;;;;;;;11.60;6.13;;;18.30;99.90;;;;;;4989698;28;20030;-83
2022/08/16 04:24:31;;;;;;;11.80;6.00;;;18.30;99.90;;;;;;4987342;28;20129;-83
2022/08/16 04:26:57;;;;;;;12.48;6.00;;;18.30;99.90;;;;;;5000818;28;20062;-84
2022/08/16 04:29:23;;;;;;;11.38;5.72;;;18.20;99.90;;;;;;4980410;28;20403;-84
2022/08/16 04:31:51;;;;;;;11.63;5.97;;;18.10;99.90;;;;;;4985069;28;20037;-83
2022/08/16 04:34:16;;;;;;;11.93;5.38;;;18.20;99.90;;;;;;4987838;28;20022;-83
2022/08/16 04:36:42;;;;;;;13.32;5.57;;;18.20;99.90;;;;;;4989231;28;20439;-84
2022/08/16 04:39:08;;;;;;;12.73;6.13;;;18.20;99.90;;;;;;4990587;28;20093;-83
2022/08/16 04:41:34;;;;;;;10.95;5.60;;;18.10;99.90;;;;;;5004046;28;20335;-83
2022/08/16 04:43:59;;;;;;;9.80;5.60;;;18.20;99.90;;;;;;4995950;28;20522;-83
2022/08/16 04:46:26;;;;;;;12.57;6.28;;;18.30;99.90;;;;;;4988473;28;20023;-83
2022/08/16 04:48:53;;;;;;;13.38;5.80;;;18.30;99.90;;;;;;5004017;28;20443;-83
2022/08/16 04:51:19;;;;;;;15.60;6.03;;;18.30;99.90;;;;;;4992437;28;20742;-83
2022/08/16 04:53:45;;;;;;;11.43;5.43;;;18.40;99.90;;;;;;4985719;28;20479;-83
2022/08/16 04:56:11;;;;;;;12.32;5.15;;;18.40;99.90;;;;;;4986535;28;20042;-83
2022/08/16 04:58:36;;;;;;;11.32;5.45;;;18.40;99.90;;;;;;4990448;28;20065;-83
2022/08/16 05:01:03;;;;;;;10.90;5.13;;;18.60;99.90;;;;;;4993648;28;20426;-84
2022/08/16 05:03:29;;;;;;;10.90;5.70;;;18.60;99.90;;;;;;4992158;28;20053;-83
2022/08/16 05:05:55;;;;;;;9.98;5.30;;;18.60;99.90;;;;;;4991057;28;20034;-83
2022/08/16 05:08:23;;;;;;;12.38;5.05;;;18.70;99.90;;;;;;4992226;28;20049;-83
2022/08/16 05:10:49;;;;;;;9.75;5.25;;;18.80;99.90;;;;;;4984641;28;20030;-83
2022/08/16 05:13:17;;;;;;;10.98;5.28;;;18.90;99.90;;;;;;4989028;28;20027;-83
2022/08/16 05:15:44;;;;;;;10.63;5.03;;;18.90;99.90;;;;;;4996015;28;20054;-83
2022/08/16 05:18:09;;;;;;;9.32;5.22;;;18.90;99.90;;;;;;4994478;28;20125;-83
2022/08/16 05:20:35;;;;;;;9.02;4.72;;;19.00;99.90;;;;;;4997669;28;20058;-83
2022/08/16 05:23:01;;;;;;;11.90;5.75;;;19.00;99.90;;;;;;5008954;28;20057;-83
2022/08/16 05:25:28;;;;;;;12.15;5.10;;;19.00;99.90;;;;;;4994764;28;20057;-82
2022/08/16 05:27:54;;;;;;;11.57;5.10;;;19.00;99.90;;;;;;4994360;28;20046;-82
2022/08/16 05:30:20;;;;;;;11.77;5.05;;;19.10;99.90;;;;;;5004966;28;20034;-82
2022/08/16 05:32:46;;;;;;;10.38;5.13;;;19.20;99.90;;;;;;4992310;28;20033;-82
2022/08/16 05:35:13;;;;;;;9.07;4.80;;;19.20;99.90;;;;;;4990185;28;20503;-82
2022/08/16 05:37:40;;;;;;;10.70;5.00;;;19.20;99.90;;;;;;4991147;28;20029;-82
2022/08/16 05:40:08;;;;;;;8.85;4.93;;;19.30;99.90;;;;;;4994397;28;20101;-82
2022/08/16 05:42:34;;;;;;;9.50;4.97;;;19.40;99.90;;;;;;4995325;28;20065;-82
2022/08/16 05:45:00;;;;;;;10.07;5.28;;;19.50;99.90;;;;;;4993793;28;20398;-82
2022/08/16 05:47:26;;;;;;;9.40;5.10;;;19.50;99.90;;;;;;5009609;28;20038;-82
2022/08/16 05:49:52;;;;;;;13.07;5.03;;;19.60;99.90;;;;;;4993199;28;20057;-82
2022/08/16 05:52:18;;;;;;;11.23;5.22;;;19.70;99.90;;;;;;4981871;28;20035;-82
2022/08/16 05:54:44;;;;;;;11.45;5.05;;;19.70;99.90;;;;;;4989805;28;20056;-82
2022/08/16 05:57:10;;;;;;;9.60;4.95;;;19.80;99.90;;;;;;4987432;28;20426;-83
2022/08/16 05:59:35;;;;;;;10.52;4.70;;;19.80;99.90;;;;;;4988527;28;20088;-83
2022/08/16 06:02:04;;;;;;;8.38;4.60;;;19.90;99.90;;;;;;4988308;28;20035;-80
2022/08/16 06:04:29;;;;;;;10.75;4.88;;;20.00;99.90;;;;;;4987518;28;20057;-82
2022/08/16 06:06:55;;;;;;;9.07;4.82;;;20.00;99.90;;;;;;5006254;28;20026;-82
2022/08/16 06:09:21;;;;;;;13.57;4.40;;;20.10;99.90;;;;;;4982711;28;20026;-83
2022/08/16 06:11:47;;;;;;;12.02;5.00;;;20.10;99.90;;;;;;4982841;28;20041;-82
2022/08/16 06:14:13;;;;;;;12.07;5.00;;;20.20;99.90;;;;;;4987930;28;20019;-83
2022/08/16 06:16:39;;;;;;;9.75;4.82;;;20.20;99.90;;;;;;4984581;28;20089;-82
2022/08/16 06:19:05;;;;;;;15.02;4.85;;;20.30;99.90;;;;;;4988565;28;20026;-80
2022/08/16 06:21:30;;;;;;;10.07;4.50;;;20.30;99.90;;;;;;4989260;28;20037;-80
2022/08/16 06:23:56;;;;;;;10.63;4.63;;;20.30;99.90;;;;;;4992331;28;20055;-80
2022/08/16 06:26:22;;;;;;;12.27;4.93;;;20.40;99.90;;;;;;4989172;28;20387;-80
2022/08/16 06:28:48;;;;;;;12.00;4.75;;;20.50;99.90;;;;;;4990212;28;20438;-81
2022/08/16 06:31:14;;;;;;;10.77;4.80;;;20.70;99.90;;;;;;4990638;28;20050;-80
2022/08/16 06:33:42;;;;;;;11.18;4.88;;;20.70;99.90;;;;;;4991051;28;20086;-81
2022/08/16 06:36:08;;;;;;;9.98;4.68;;;20.80;99.90;;;;;;4985756;28;20189;-80
2022/08/16 06:38:35;;;;;;;10.82;4.30;;;21.00;99.90;;;;;;4992693;28;20076;-80
2022/08/16 06:41:04;;;;;;;11.60;4.88;;;21.00;99.90;;;;;;4987637;28;20121;-80
2022/08/16 06:43:30;;;;;;;10.63;4.55;;;21.20;99.90;;;;;;4990781;28;20030;-80
2022/08/16 06:45:55;;;;;;;12.73;4.47;;;21.30;99.90;;;;;;4984800;28;20030;-80
2022/08/16 06:48:21;;;;;;;8.60;4.60;;;21.40;99.90;;;;;;4985860;28;20026;-80
2022/08/16 06:50:48;;;;;;;11.07;4.95;;;21.50;99.90;;;;;;4980886;28;20101;-80
2022/08/16 06:53:14;;;;;;;8.20;4.40;;;21.60;99.90;;;;;;4982097;28;20479;-80
2022/08/16 06:55:42;;;;;;;9.90;4.63;;;21.70;99.90;;;;;;4990915;28;20026;-80
2022/08/16 06:58:07;;;;;;;10.70;4.32;;;21.90;99.90;;;;;;4982999;28;20042;-80
2022/08/16 07:00:33;;;;;;;9.18;4.63;;;22.10;99.90;;;;;;4989658;28;20443;-80
2022/08/16 07:02:59;;;;;;;11.00;4.28;;;22.10;99.90;;;;;;4991617;28;20031;-81
2022/08/16 07:05:25;;;;;;;8.68;4.47;;;22.20;99.90;;;;;;4987661;28;20080;-80
2022/08/16 07:07:53;;;;;;;8.50;4.50;;;22.10;99.90;;;;;;4990187;28;20022;-80
2022/08/16 07:10:19;;;;;;;8.90;4.28;;;22.20;99.90;;;;;;4991144;28;20453;-80
2022/08/16 07:12:49;;;;;;;8.73;4.30;;;22.30;99.90;;;;;;4989178;28;20027;-80
2022/08/16 07:15:18;;;;;;;10.57;4.28;;;22.50;99.90;;;;;;4987771;28;20018;-80
2022/08/16 07:17:44;;;;;;;11.32;5.00;;;22.40;99.90;;;;;;4990779;28;20113;-80
2022/08/16 07:20:11;;;;;;;10.18;4.95;;;22.40;99.90;;;;;;4989960;28;20041;-80
2022/08/16 07:22:38;;;;;;;11.68;4.70;;;22.40;99.90;;;;;;4988640;28;20026;-80
2022/08/16 07:25:10;;;;;;;9.70;4.63;;;22.50;99.90;;;;;;4990506;28;20045;-81
2022/08/16 07:27:37;;;;;;;9.65;4.70;;;22.70;99.90;;;;;;4987174;28;20040;-81
2022/08/16 07:30:06;;;;;;;12.77;5.38;;;22.80;99.90;;;;;;4988588;28;20077;-80
2022/08/16 07:32:32;;;;;;;12.67;5.07;;;22.80;99.90;;;;;;4981230;28;20022;-80
2022/08/16 07:34:58;;;;;;;8.43;4.60;;;22.90;99.90;;;;;;4990745;28;20031;-80
2022/08/16 07:37:24;;;;;;;11.18;4.90;;;22.90;99.90;;;;;;4985946;28;20027;-80
2022/08/16 07:39:49;;;;;;;9.65;4.78;;;22.90;99.90;;;;;;4991386;28;20026;-80
2022/08/16 07:42:15;;;;;;;10.55;4.75;;;23.10;99.90;;;;;;4984115;28;20102;-80
2022/08/16 07:44:40;;;;;;;10.50;4.40;;;23.10;99.90;;;;;;4986004;28;20057;-80
2022/08/16 07:47:06;;;;;;;8.40;4.43;;;23.30;99.90;;;;;;4988103;28;20027;-81
2022/08/16 07:49:32;;;;;;;9.07;4.57;;;23.20;99.90;;;;;;4987253;28;20505;-80
2022/08/16 07:51:58;;;;;;;8.82;4.30;;;23.20;99.90;;;;;;4991093;28;20027;-81
2022/08/16 07:54:23;;;;;;;10.25;4.78;;;23.50;99.90;;;;;;4989440;28;20034;-80
2022/08/16 07:56:49;;;;;;;11.07;5.00;;;23.60;99.90;;;;;;4989559;28;20160;-80
2022/08/16 07:59:14;;;;;;;9.75;4.70;;;23.70;99.90;;;;;;4987985;28;20015;-81
2022/08/16 08:01:41;;;;;;;10.32;4.45;;;23.80;99.90;;;;;;4985854;28;20049;-80
2022/08/16 08:04:09;;;;;;;9.30;4.72;;;23.90;99.90;;;;;;4986645;28;20066;-80
2022/08/16 08:06:35;;;;;;;11.77;4.72;;;23.90;99.90;;;;;;4986877;28;20035;-80
2022/08/16 08:09:03;;;;;;;10.13;4.93;;;24.10;99.90;;;;;;4980070;28;20073;-80
2022/08/16 08:11:29;;;;;;;9.68;4.78;;;23.90;99.90;;;;;;4991670;28;20125;-80
2022/08/16 08:13:58;;;;;;;10.38;4.88;;;23.70;99.90;;;;;;4988391;28;20471;-80
2022/08/16 08:16:25;;;;;;;11.48;4.60;;;23.90;99.90;;;;;;4989509;28;20024;-80
2022/08/16 08:18:53;;;;;;;10.05;4.57;;;24.10;99.90;;;;;;4988675;28;20030;-81
2022/08/16 08:21:20;;;;;;;11.00;5.15;;;24.50;99.90;;;;;;4983588;28;20019;-81
2022/08/16 08:23:47;;;;;;;12.32;4.50;;;24.90;99.90;;;;;;4987123;28;20506;-81
2022/08/16 08:26:13;;;;;;;9.35;4.45;;;25.60;99.90;;;;;;4989612;28;20501;-81
2022/08/16 08:28:39;;;;;;;8.85;4.18;;;26.10;99.90;;;;;;4985213;28;20122;-81
2022/08/16 08:31:05;;;;;;;13.52;4.60;;;26.40;99.90;;;;;;4983107;28;20042;-81
2022/08/16 08:33:32;;;;;;;9.82;4.25;;;27.10;99.90;;;;;;4986444;28;20023;-80
2022/08/16 08:36:00;;;;;;;12.90;4.20;;;27.40;99.90;;;;;;4980252;28;20110;-81
2022/08/16 08:38:28;;;;;;;9.73;3.88;;;27.90;98.80;;;;;;4982328;28;20141;-81
2022/08/16 08:40:54;;;;;;;8.55;4.15;;;28.40;97.80;;;;;;4985434;28;20093;-81
2022/08/16 08:43:21;;;;;;;7.60;3.72;;;28.70;97.20;;;;;;4989190;28;20391;-81
2022/08/16 08:45:47;;;;;;;10.10;4.70;;;28.20;97.00;;;;;;4990841;28;20050;-81
2022/08/16 08:48:13;;;;;;;10.73;4.22;;;28.10;97.10;;;;;;4984208;28;20126;-81
2022/08/16 08:50:41;;;;;;;8.93;4.53;;;28.50;96.60;;;;;;4988156;28;20041;-81
2022/08/16 08:53:07;;;;;;;9.75;4.65;;;28.70;96.10;;;;;;4984066;28;20019;-81
2022/08/16 08:55:33;;;;;;;11.05;4.07;;;28.70;95.90;;;;;;4987321;28;20030;-80
2022/08/16 08:57:59;;;;;;;10.93;4.45;;;28.60;96.10;;;;;;4987317;28;20030;-81
2022/08/16 09:00:27;;;;;;;12.55;4.75;;;28.30;96.10;;;;;;4988086;28;20031;-80
2022/08/16 09:02:53;;;;;;;9.35;4.55;;;28.40;96.10;;;;;;4990148;28;20030;-81
2022/08/16 09:05:21;;;;;;;10.15;4.38;;;28.60;96.10;;;;;;4988508;28;20189;-80
2022/08/16 09:07:46;;;;;;;9.95;4.68;;;28.90;95.80;;;;;;4989559;28;20402;-81
2022/08/16 09:10:13;;;;;;;8.73;4.53;;;29.40;94.90;;;;;;4987154;28;20027;-81
2022/08/16 09:12:39;;;;;;;12.85;4.93;;;29.90;94.10;;;;;;4989834;28;20019;-81
2022/08/16 09:15:07;;;;;;;8.70;4.03;;;30.30;92.90;;;;;;4987078;28;20045;-81
2022/08/16 09:17:34;;;;;;;7.75;4.35;;;30.10;92.70;;;;;;4997381;28;20026;-81
2022/08/16 09:19:59;;;;;;;8.95;4.30;;;30.20;93.00;;;;;;4970885;28;20597;-81
2022/08/16 09:22:27;;;;;;;8.20;4.07;;;30.30;92.30;;;;;;4993604;28;20131;-80
2022/08/16 09:24:53;;;;;;;10.85;4.50;;;30.20;91.80;;;;;;4986994;28;20041;-81
2022/08/16 09:27:23;;;;;;;9.55;4.55;;;30.20;92.30;;;;;;4987001;28;20069;-81
2022/08/16 09:29:49;;;;;;;9.65;4.47;;;30.30;92.30;;;;;;4987971;28;20030;-81
2022/08/16 09:32:17;;;;;;;8.35;4.28;;;30.50;91.90;;;;;;4989830;28;20026;-81
2022/08/16 09:34:43;;;;;;;10.77;4.50;;;30.60;91.40;;;;;;4978847;28;20146;-81
2022/08/16 09:37:09;;;;;;;11.43;4.53;;;31.00;90.50;;;;;;4994350;28;20061;-81
2022/08/16 09:39:35;;;;;;;8.30;3.97;;;31.40;90.30;;;;;;4980056;28;20055;-81
2022/08/16 09:42:01;;;;;;;9.80;4.65;;;31.80;89.30;;;;;;4993985;28;20467;-81
2022/08/16 09:44:27;;;;;;;9.63;3.75;;;31.90;87.60;;;;;;4989386;28;20041;-81
2022/08/16 09:46:54;;;;;;;7.95;4.60;;;31.70;88.50;;;;;;4992405;28;20105;-80
2022/08/16 09:49:21;;;;;;;9.63;4.00;;;31.00;89.20;;;;;;4993916;28;20109;-81
2022/08/16 09:51:52;;;;;;;8.70;4.55;;;31.60;89.00;;;;;;4993821;28;20030;-81
2022/08/16 09:54:18;;;;;;;8.40;4.25;;;31.10;89.30;;;;;;4992135;28;20216;-81
2022/08/16 09:56:44;;;;;;;14.18;4.30;;;31.90;87.70;;;;;;4994250;28;20089;-81
2022/08/16 09:59:12;;;;;;;8.07;4.22;;;32.60;85.20;;;;;;4992183;28;20022;-81
2022/08/16 10:01:40;;;;;;;10.10;4.28;;;32.90;85.10;;;;;;4988284;28;20026;-81
2022/08/16 10:04:06;;;;;;;12.63;4.65;;;32.70;84.20;;;;;;4985430;28;20054;-82
2022/08/16 10:06:32;;;;;;;9.15;4.60;;;32.60;84.70;;;;;;4990009;28;20031;-81
2022/08/16 10:08:57;;;;;;;9.35;4.15;;;32.80;83.50;;;;;;4989828;28;20100;-81
2022/08/16 10:14:07;;;;;;;12.52;4.65;;;32.10;83.30;;;;;;4982783;28;20379;-81
2022/08/16 10:16:34;;;;;;;10.60;4.55;;;31.70;84.70;;;;;;4986290;28;20031;-81
2022/08/16 10:18:59;;;;;;;9.30;4.43;;;32.20;83.30;;;;;;4985286;28;20470;-82
2022/08/16 10:21:26;;;;;;;8.68;4.13;;;32.80;83.70;;;;;;5004473;28;20034;-81
2022/08/16 10:23:53;;;;;;;8.70;3.97;;;33.30;80.90;;;;;;4987622;28;20106;-81
2022/08/16 10:26:19;;;;;;;15.18;4.60;;;32.40;81.90;;;;;;4993183;28;20022;-81
2022/08/16 10:28:45;;;;;;;7.95;4.30;;;32.40;82.70;;;;;;4984896;28;20038;-81
2022/08/16 10:31:12;;;;;;;9.60;4.55;;;32.20;81.90;;;;;;4992188;28;20045;-82
2022/08/16 10:33:38;;;;;;;8.75;4.13;;;33.30;79.90;;;;;;4988804;28;20456;-81
2022/08/16 10:36:06;;;;;;;12.40;4.35;;;31.90;82.00;;;;;;4993681;28;20053;-81
2022/08/16 10:38:34;;;;;;;8.88;4.50;;;30.50;84.40;;;;;;4994833;28;20019;-81
2022/08/16 10:41:00;;;;;;;9.85;4.75;;;31.00;85.20;;;;;;4986524;28;20099;-81
2022/08/16 10:43:26;;;;;;;9.68;4.13;;;32.20;83.20;;;;;;4991532;28;20038;-81
2022/08/16 10:45:52;;;;;;;11.57;4.15;;;32.80;81.40;;;;;;4992276;28;20023;-81
2022/08/16 10:48:18;;;;;;;10.35;4.30;;;32.20;79.40;;;;;;4989295;28;20041;-81
2022/08/16 10:50:44;;;;;;;10.05;4.03;;;32.40;80.00;;;;;;4991810;28;20120;-82
2022/08/16 10:53:10;;;;;;;12.32;3.95;;;33.70;79.40;;;;;;4986994;28;20036;-83
2022/08/16 10:55:38;;;;;;;8.40;4.28;;;34.10;77.00;;;;;;4991383;28;20018;-81
2022/08/16 10:58:06;;;;;;;8.98;4.30;;;33.80;77.70;;;;;;4983959;28;20443;-81
2022/08/16 11:00:33;;;;;;;7.90;3.42;;;33.90;77.60;;;;;;4990867;28;20185;-81
2022/08/16 11:03:02;;;;;;;11.15;4.10;;;33.50;76.90;;;;;;4987463;28;20034;-81
2022/08/16 11:05:30;;;;;;;10.52;4.47;;;32.90;77.20;;;;;;4983282;28;20054;-81
2022/08/16 11:07:57;;;;;;;8.68;4.20;;;33.10;78.10;;;;;;4987723;28;20026;-81
2022/08/16 11:10:34;;;;;;;14.25;5.00;;;32.10;77.90;;;;;;4987053;28;20109;-81
2022/08/16 11:13:00;;;;;;;10.63;4.07;;;31.50;79.40;;;;;;4983041;28;20049;-81
2022/08/16 11:15:26;;;;;;;11.35;3.67;;;32.90;76.30;;;;;;4983307;28;20034;-81
2022/08/16 11:17:54;;;;;;;7.72;3.83;;;33.50;74.60;;;;;;4986173;28;20042;-81
2022/08/16 11:20:21;;;;;;;9.27;3.97;;;33.50;74.00;;;;;;4989434;28;20619;-82
2022/08/16 11:22:48;;;;;;;8.38;4.10;;;34.20;73.90;;;;;;4991364;28;20430;-81
2022/08/16 11:25:19;;;;;;;8.93;4.10;;;35.00;73.30;;;;;;4987412;28;20483;-81
2022/08/16 11:27:45;;;;;;;9.00;3.58;;;35.90;71.60;;;;;;4989282;28;20041;-81
2022/08/16 11:30:12;;;;;;;7.88;3.50;;;34.90;72.60;;;;;;4989443;28;20037;-82
2022/08/16 11:32:39;;;;;;;8.15;3.78;;;34.60;71.20;;;;;;4979160;28;20336;-81
2022/08/16 11:35:09;;;;;;;9.77;3.85;;;34.70;69.60;;;;;;4990871;28;20042;-82
2022/08/16 11:37:35;;;;;;;9.10;3.42;;;36.10;69.40;;;;;;4989188;28;20027;-82
2022/08/16 11:40:03;;;;;;;8.95;3.53;;;36.60;67.50;;;;;;4999816;28;20105;-81
2022/08/16 11:42:29;;;;;;;9.80;3.85;;;35.60;68.90;;;;;;4984984;28;20394;-81
2022/08/16 11:44:54;;;;;;;11.07;4.20;;;34.30;70.20;;;;;;4992558;28;20022;-81
2022/08/16 11:47:20;;;;;;;10.55;4.03;;;34.60;72.40;;;;;;4990006;28;20025;-82
2022/08/16 11:49:46;;;;;;;7.85;4.30;;;34.70;70.60;;;;;;4987401;28;20247;-81
2022/08/16 11:52:11;;;;;;;10.18;4.05;;;35.80;69.00;;;;;;4991596;28;20069;-82
2022/08/16 11:54:40;;;;;;;10.85;4.28;;;34.50;68.60;;;;;;4990284;28;20027;-81
2022/08/16 11:57:06;;;;;;;7.70;3.65;;;32.90;71.50;;;;;;4991682;28;20026;-82
2022/08/16 11:59:32;;;;;;;7.28;3.17;;;33.70;70.20;;;;;;5002957;28;20031;-81
2022/08/16 12:01:58;;;;;;;7.35;3.50;;;34.40;68.80;;;;;;4981531;28;20399;-82
2022/08/16 12:04:24;;;;;;;9.00;3.67;;;35.90;67.60;;;;;;4987970;28;20042;-81
2022/08/16 12:06:51;;;;;;;7.95;3.47;;;36.50;66.50;;;;;;4991277;28;20029;-81
2022/08/16 12:09:16;;;;;;;8.32;3.50;;;36.00;66.10;;;;;;4993445;28;20042;-82
2022/08/16 12:11:43;;;;;;;7.80;3.50;;;37.00;64.60;;;;;;4985720;28;20022;-81
2022/08/16 12:14:09;;;;;;;10.45;3.90;;;36.10;65.50;;;;;;4985533;28;20030;-81
2022/08/16 12:16:37;;;;;;;7.60;3.53;;;36.50;64.80;;;;;;4986283;28;20033;-82
2022/08/16 12:19:06;;;;;;;8.65;3.90;;;36.60;65.10;;;;;;4982879;28;20019;-82
2022/08/16 12:21:32;;;;;;;9.18;3.88;;;36.90;64.90;;;;;;4982764;28;20030;-82
2022/08/16 12:23:58;;;;;;;8.70;4.10;;;35.80;65.50;;;;;;4996377;28;20043;-83
2022/08/16 12:26:24;;;;;;;9.25;3.80;;;37.60;64.70;;;;;;4985856;28;20099;-81
2022/08/16 12:28:52;;;;;;;8.18;3.63;;;37.70;64.10;;;;;;4978120;28;20023;-81
2022/08/16 12:31:19;;;;;;;9.18;3.63;;;36.90;64.40;;;;;;4985134;28;20028;-82
2022/08/16 12:33:45;;;;;;;10.50;3.58;;;37.30;63.40;;;;;;4979342;28;20046;-82
2022/08/16 12:36:12;;;;;;;8.63;3.65;;;37.10;64.30;;;;;;4987850;28;20061;-82
2022/08/16 12:38:38;;;;;;;7.18;3.17;;;38.20;63.20;;;;;;4988075;28;20089;-82
2022/08/16 12:41:04;;;;;;;9.93;3.90;;;38.50;62.40;;;;;;4991298;28;20027;-82